createdAt,value
2018-07-09T00:01:05.449Z,13.70
2018-07-09T00:03:33.995Z,13.60
2018-07-09T00:06:02.547Z,13.50
2018-07-09T00:08:31.072Z,13.40
2018-07-09T00:11:00.786Z,13.40
2018-07-09T00:13:30.021Z,13.40
2018-07-09T00:15:58.726Z,13.40
2018-07-09T00:18:27.273Z,13.40
2018-07-09T00:20:55.816Z,13.40
2018-07-09T00:23:24.338Z,13.30
2018-07-09T00:25:53.479Z,13.40
2018-07-09T00:28:22.546Z,13.30
2018-07-09T00:30:51.043Z,13.30
2018-07-09T00:33:20.125Z,13.20
2018-07-09T00:35:48.916Z,13.20
2018-07-09T00:38:17.971Z,13.20
2018-07-09T00:40:46.559Z,13.10
2018-07-09T00:43:15.044Z,13.10
2018-07-09T00:45:43.581Z,13.20
2018-07-09T00:48:12.094Z,13.10
2018-07-09T00:50:40.695Z,13.10
2018-07-09T00:53:09.186Z,13.20
2018-07-09T00:55:37.701Z,13.20
2018-07-09T00:58:06.394Z,13.20
2018-07-09T01:03:03.250Z,13.10
2018-07-09T01:05:31.779Z,13.00
2018-07-09T01:08:00.299Z,13.10
2018-07-09T01:10:28.793Z,13.00
2018-07-09T01:12:57.252Z,13.10
2018-07-09T01:15:25.799Z,13.00
2018-07-09T01:17:54.365Z,12.70
2018-07-09T01:20:22.996Z,12.50
2018-07-09T01:22:51.485Z,12.50
2018-07-09T01:25:19.982Z,12.50
2018-07-09T01:27:48.518Z,12.50
2018-07-09T01:30:17.121Z,12.50
2018-07-09T01:32:45.626Z,12.60
2018-07-09T01:35:14.652Z,12.60
2018-07-09T01:37:43.561Z,12.60
2018-07-09T01:40:12.173Z,12.60
2018-07-09T01:42:40.681Z,12.60
2018-07-09T01:45:09.153Z,12.60
2018-07-09T01:47:37.670Z,12.60
2018-07-09T01:50:06.170Z,12.50
2018-07-09T01:52:34.630Z,12.40
2018-07-09T01:55:03.123Z,12.40
2018-07-09T01:57:31.646Z,12.40
2018-07-09T02:00:00.127Z,12.40
2018-07-09T02:02:28.622Z,12.40
2018-07-09T02:04:57.101Z,12.30
2018-07-09T02:07:25.613Z,12.30
2018-07-09T02:09:54.079Z,12.30
2018-07-09T02:14:50.726Z,12.30
2018-07-09T02:19:47.533Z,12.20
2018-07-09T02:22:16.118Z,12.20
2018-07-09T02:24:44.642Z,12.20
2018-07-09T02:27:13.113Z,12.20
2018-07-09T02:29:41.627Z,12.20
2018-07-09T02:32:10.123Z,12.10
2018-07-09T02:34:38.636Z,12.00
2018-07-09T02:37:07.098Z,12.00
2018-07-09T02:39:35.623Z,12.00
2018-07-09T02:42:04.122Z,11.90
2018-07-09T02:44:32.618Z,12.00
2018-07-09T02:47:01.120Z,11.90
2018-07-09T02:49:29.625Z,11.90
2018-07-09T02:51:58.102Z,11.90
2018-07-09T02:54:26.623Z,11.90
2018-07-09T02:56:55.106Z,11.90
2018-07-09T02:59:23.621Z,11.90
2018-07-09T03:01:52.125Z,11.90
2018-07-09T03:04:20.627Z,11.90
2018-07-09T03:06:49.098Z,11.80
2018-07-09T03:09:17.580Z,11.70
2018-07-09T03:11:46.580Z,11.70
2018-07-09T03:14:15.086Z,11.70
2018-07-09T03:19:11.853Z,11.70
2018-07-09T03:21:40.265Z,11.70
2018-07-09T03:24:08.774Z,11.60
2018-07-09T03:26:37.303Z,11.60
2018-07-09T03:29:05.807Z,11.60
2018-07-09T03:31:34.286Z,11.70
2018-07-09T03:34:02.779Z,11.60
2018-07-09T03:36:31.286Z,11.60
2018-07-09T03:38:59.764Z,11.50
2018-07-09T03:41:28.282Z,11.50
2018-07-09T03:43:57.279Z,11.40
2018-07-09T03:46:25.862Z,11.40
2018-07-09T03:48:54.442Z,11.40
2018-07-09T03:51:22.987Z,11.30
2018-07-09T03:53:51.679Z,11.40
2018-07-09T03:56:20.417Z,11.40
2018-07-09T03:58:48.946Z,11.40
2018-07-09T04:01:17.531Z,11.40
2018-07-09T04:03:46.031Z,11.40
2018-07-09T04:06:14.621Z,11.40
2018-07-09T04:08:43.175Z,11.50
2018-07-09T04:16:08.240Z,11.60
2018-07-09T04:18:36.805Z,11.70
2018-07-09T04:21:05.390Z,11.70
2018-07-09T04:23:33.960Z,11.80
2018-07-09T04:26:02.521Z,11.90
2018-07-09T04:28:35.119Z,12.00
2018-07-09T04:31:03.626Z,12.10
2018-07-09T04:33:32.149Z,12.20
2018-07-09T04:36:00.625Z,12.20
2018-07-09T04:38:29.126Z,12.30
2018-07-09T04:40:57.707Z,12.40
2018-07-09T04:43:26.206Z,12.40
2018-07-09T04:45:54.685Z,12.50
2018-07-09T04:50:51.350Z,12.60
2018-07-09T04:53:19.875Z,12.70
2018-07-09T04:55:48.395Z,12.80
2018-07-09T04:58:16.896Z,12.90
2018-07-09T05:00:45.724Z,13.00
2018-07-09T05:03:14.329Z,13.00
2018-07-09T05:05:42.868Z,13.10
2018-07-09T05:08:11.326Z,13.10
2018-07-09T05:10:39.778Z,13.10
2018-07-09T05:13:08.275Z,13.30
2018-07-09T05:15:36.787Z,13.30
2018-07-09T05:18:05.518Z,13.40
2018-07-09T05:20:34.005Z,13.50
2018-07-09T05:23:02.517Z,13.60
2018-07-09T05:25:31.032Z,13.70
2018-07-09T05:27:59.481Z,13.80
2018-07-09T05:30:27.960Z,13.90
2018-07-09T05:32:56.441Z,14.00
2018-07-09T05:35:24.979Z,14.10
2018-07-09T05:37:53.630Z,14.20
2018-07-09T05:40:23.222Z,14.30
2018-07-09T05:42:51.747Z,14.40
2018-07-09T05:45:20.286Z,14.50
2018-07-09T05:47:48.842Z,14.60
2018-07-09T05:52:45.561Z,14.90
2018-07-09T05:55:14.131Z,15.00
2018-07-09T05:57:42.654Z,15.20
2018-07-09T06:00:11.187Z,15.30
2018-07-09T06:02:39.706Z,15.50
2018-07-09T06:05:08.329Z,15.60
2018-07-09T06:07:36.910Z,15.70
2018-07-09T06:10:05.489Z,15.80
2018-07-09T06:12:33.962Z,15.90
2018-07-09T06:15:02.485Z,16.10
2018-07-09T06:17:30.965Z,16.40
2018-07-09T06:19:59.546Z,16.50
2018-07-09T06:22:28.070Z,16.70
2018-07-09T06:24:56.584Z,17.00
2018-07-09T06:27:25.099Z,17.30
2018-07-09T06:29:53.574Z,17.60
2018-07-09T06:32:22.105Z,17.90
2018-07-09T06:37:18.773Z,18.30
2018-07-09T06:39:47.315Z,18.40
2018-07-09T06:42:15.910Z,18.40
2018-07-09T06:44:44.534Z,18.60
2018-07-09T06:47:13.076Z,18.70
2018-07-09T06:49:41.577Z,18.80
2018-07-09T06:52:10.138Z,18.90
2018-07-09T06:54:38.621Z,19.00
2018-07-09T06:57:07.170Z,19.10
2018-07-09T06:59:35.638Z,19.20
2018-07-09T07:02:04.185Z,19.40
2018-07-09T07:04:32.652Z,19.40
2018-07-09T07:07:01.177Z,19.40
2018-07-09T07:09:29.674Z,19.60
2018-07-09T07:11:58.183Z,19.70
2018-07-09T07:14:26.693Z,19.80
2018-07-09T07:16:55.203Z,20.00
2018-07-09T07:19:23.781Z,20.10
2018-07-09T07:21:52.266Z,20.10
2018-07-09T07:24:21.448Z,20.20
2018-07-09T07:26:49.903Z,20.20
2018-07-09T07:29:18.471Z,20.30
2018-07-09T07:31:47.025Z,20.40
2018-07-09T07:34:19.634Z,20.50
2018-07-09T07:36:48.178Z,20.50
2018-07-09T07:39:16.669Z,20.70
2018-07-09T07:41:45.570Z,20.90
2018-07-09T07:44:14.192Z,21.00
2018-07-09T07:46:43.782Z,21.10
2018-07-09T07:49:12.378Z,21.10
2018-07-09T07:51:40.904Z,21.20
2018-07-09T07:54:12.638Z,21.40
2018-07-09T07:56:42.023Z,21.50
2018-07-09T07:59:25.811Z,21.60
2018-07-09T08:01:54.610Z,21.70
2018-07-09T08:04:23.496Z,21.80
2018-07-09T08:06:51.991Z,21.60
2018-07-09T08:09:20.693Z,21.60
2018-07-09T08:11:49.307Z,21.90
2018-07-09T08:14:17.678Z,22.00
2018-07-09T08:16:46.193Z,22.20
2018-07-09T08:19:14.768Z,22.40
2018-07-09T08:21:43.322Z,22.50
2018-07-09T08:24:11.804Z,22.50
2018-07-09T08:26:40.343Z,22.60
2018-07-09T08:29:08.799Z,22.90
2018-07-09T08:31:37.315Z,22.90
2018-07-09T08:34:05.871Z,22.90
2018-07-09T08:36:34.414Z,22.90
2018-07-09T08:39:02.926Z,23.00
2018-07-09T08:41:31.720Z,23.20
2018-07-09T08:44:00.213Z,23.30
2018-07-09T08:46:28.745Z,23.10
2018-07-09T08:48:57.178Z,23.30
2018-07-09T08:51:25.714Z,23.30
2018-07-09T08:53:55.008Z,23.50
2018-07-09T08:56:23.659Z,23.80
2018-07-09T08:58:52.186Z,23.80
2018-07-09T09:01:20.704Z,23.50
2018-07-09T09:06:47.430Z,23.90
2018-07-09T09:09:16.750Z,24.00
2018-07-09T09:11:45.263Z,23.70
2018-07-09T09:16:42.000Z,23.90
2018-07-09T09:19:10.581Z,24.20
2018-07-09T09:21:39.134Z,24.30
2018-07-09T09:24:07.718Z,24.50
2018-07-09T09:26:36.462Z,24.40
2018-07-09T09:34:01.278Z,25.10
2018-07-09T09:36:29.742Z,25.00
2018-07-09T09:38:58.252Z,25.10
2018-07-09T09:43:55.092Z,25.10
2018-07-09T09:46:23.686Z,25.40
2018-07-09T09:51:21.398Z,24.90
2018-07-09T09:53:49.957Z,25.10
2018-07-09T09:58:46.748Z,25.10
2018-07-09T10:01:15.271Z,25.40
2018-07-09T10:03:43.808Z,25.80
2018-07-09T10:06:12.319Z,26.10
2018-07-09T10:08:40.754Z,26.40
2018-07-09T10:11:09.218Z,26.90
2018-07-09T10:13:37.637Z,26.30
2018-07-09T10:16:06.415Z,26.50
2018-07-09T10:18:34.869Z,27.00
2018-07-09T10:21:03.421Z,27.50
2018-07-09T10:23:31.926Z,26.40
2018-07-09T10:26:00.349Z,27.00
2018-07-09T10:28:28.790Z,27.80
2018-07-09T10:30:57.825Z,28.00
2018-07-09T10:33:26.398Z,28.10
2018-07-09T10:35:54.859Z,28.60
2018-07-09T10:38:23.361Z,28.60
2018-07-09T10:40:51.845Z,28.30
2018-07-09T10:43:20.886Z,28.40
2018-07-09T10:45:50.087Z,28.60
2018-07-09T10:48:18.673Z,29.20
2018-07-09T10:50:49.201Z,29.60
2018-07-09T10:53:17.709Z,29.00
2018-07-09T10:55:46.243Z,29.00
2018-07-09T10:58:14.663Z,29.60
2018-07-09T11:00:43.173Z,30.00
2018-07-09T11:03:11.605Z,29.70
2018-07-09T11:05:40.063Z,30.60
2018-07-09T11:08:08.537Z,29.70
2018-07-09T11:10:36.998Z,30.30
2018-07-09T11:13:05.507Z,31.00
2018-07-09T11:15:33.960Z,30.60
2018-07-09T11:18:02.424Z,31.50
2018-07-09T11:20:30.922Z,31.60
2018-07-09T11:22:59.429Z,30.10
2018-07-09T11:27:56.109Z,30.90
2018-07-09T11:30:24.667Z,30.30
2018-07-09T11:32:54.001Z,30.10
2018-07-09T11:35:22.559Z,29.40
2018-07-09T11:40:19.197Z,28.00
2018-07-09T11:42:47.723Z,28.10
2018-07-09T11:45:16.297Z,28.90
2018-07-09T11:47:44.814Z,29.20
2018-07-09T11:50:13.326Z,29.70
2018-07-09T11:52:41.842Z,30.20
2018-07-09T11:55:10.329Z,30.00
2018-07-09T11:57:38.809Z,30.00
2018-07-09T12:00:08.189Z,30.20
2018-07-09T12:07:33.053Z,29.70
2018-07-09T12:10:01.525Z,29.60
2018-07-09T12:12:30.101Z,29.20
2018-07-09T12:14:58.578Z,28.20
2018-07-09T12:17:27.081Z,27.90
2018-07-09T12:19:55.623Z,27.80
2018-07-09T12:22:24.090Z,27.80
2018-07-09T12:24:52.536Z,27.70
2018-07-09T12:27:24.277Z,27.30
2018-07-09T12:29:52.754Z,27.70
2018-07-09T12:32:21.198Z,27.90
2018-07-09T12:37:17.809Z,28.20
2018-07-09T12:39:46.259Z,28.50
2018-07-09T12:42:14.694Z,28.90
2018-07-09T12:44:43.226Z,28.90
2018-07-09T12:47:11.659Z,29.30
2018-07-09T12:49:40.146Z,28.50
2018-07-09T12:52:08.620Z,28.90
2018-07-09T12:54:37.077Z,29.20
2018-07-09T12:57:05.552Z,29.70
2018-07-09T12:59:34.034Z,29.70
2018-07-09T13:02:02.494Z,30.00
2018-07-09T13:04:31.006Z,29.70
2018-07-09T13:06:59.502Z,29.60
2018-07-09T13:09:27.977Z,29.10
2018-07-09T13:11:56.622Z,28.90
2018-07-09T13:14:25.168Z,29.20
2018-07-09T13:16:53.581Z,29.50
2018-07-09T13:19:22.037Z,29.20
2018-07-09T13:21:50.536Z,28.40
2018-07-09T13:24:18.978Z,28.60
2018-07-09T13:29:15.545Z,29.10
2018-07-09T13:31:44.058Z,29.40
2018-07-09T13:34:12.507Z,29.80
2018-07-09T13:36:40.994Z,30.40
2018-07-09T13:39:09.441Z,30.60
2018-07-09T13:41:37.886Z,29.80
2018-07-09T13:44:06.324Z,29.40
2018-07-09T13:46:35.080Z,29.60
2018-07-09T13:49:03.585Z,29.30
2018-07-09T13:51:32.097Z,29.50
2018-07-09T13:54:00.602Z,31.50
2018-07-09T13:56:29.364Z,32.90
2018-07-09T13:58:58.075Z,34.20
2018-07-09T14:01:26.578Z,33.80
2018-07-09T14:03:55.007Z,33.90
2018-07-09T14:06:23.454Z,34.10
2018-07-09T14:08:51.890Z,32.40
2018-07-09T14:11:20.348Z,30.50
2018-07-09T14:13:48.761Z,29.40
2018-07-09T14:16:17.197Z,30.10
2018-07-09T14:18:45.671Z,30.10
2018-07-09T14:21:14.121Z,29.30
2018-07-09T14:23:42.545Z,28.60
2018-07-09T14:26:10.981Z,28.10
2018-07-09T14:31:07.586Z,29.20
2018-07-09T14:33:36.033Z,29.00
2018-07-09T14:36:04.513Z,28.40
2018-07-09T14:38:32.969Z,28.10
2018-07-09T14:41:01.410Z,27.90
2018-07-09T14:43:29.833Z,27.60
2018-07-09T14:48:26.386Z,27.70
2018-07-09T14:53:23.002Z,29.70
2018-07-09T14:55:51.416Z,30.30
2018-07-09T15:00:47.992Z,29.70
2018-07-09T15:03:16.451Z,31.10
2018-07-09T15:05:44.887Z,30.80
2018-07-09T15:08:13.365Z,30.00
2018-07-09T15:10:41.806Z,29.20
2018-07-09T15:15:38.363Z,27.00
2018-07-09T15:18:06.801Z,27.20
2018-07-09T15:20:35.295Z,27.50
2018-07-09T15:23:03.737Z,27.20
2018-07-09T15:25:32.203Z,27.40
2018-07-09T15:28:00.621Z,28.00
2018-07-09T15:30:30.869Z,29.60
2018-07-09T15:32:59.578Z,28.80
2018-07-09T15:35:28.022Z,27.70
2018-07-09T15:37:56.451Z,28.00
2018-07-09T15:40:24.904Z,28.40
2018-07-09T15:42:53.325Z,29.30
2018-07-09T15:45:21.796Z,29.10
2018-07-09T15:47:50.303Z,30.20
2018-07-09T15:50:18.770Z,28.80
2018-07-09T15:52:47.206Z,27.60
2018-07-09T15:55:15.706Z,27.30
2018-07-09T15:57:44.109Z,26.70
2018-07-09T16:00:12.591Z,26.20
2018-07-09T16:02:41.061Z,25.80
2018-07-09T16:05:09.489Z,25.50
2018-07-09T16:07:37.960Z,25.30
2018-07-09T16:12:34.526Z,25.30
2018-07-09T16:15:03.006Z,25.30
2018-07-09T16:17:31.436Z,25.30
2018-07-09T16:19:59.906Z,25.10
2018-07-09T16:22:28.369Z,25.10
2018-07-09T16:24:56.798Z,24.90
2018-07-09T16:27:25.274Z,25.30
2018-07-09T16:29:53.739Z,25.30
2018-07-09T16:32:22.173Z,25.30
2018-07-09T16:34:50.609Z,25.10
2018-07-09T16:37:19.230Z,24.90
2018-07-09T16:39:47.710Z,24.70
2018-07-09T16:42:16.199Z,24.90
2018-07-09T16:47:12.784Z,24.70
2018-07-09T16:49:41.245Z,24.50
2018-07-09T16:52:09.729Z,24.40
2018-07-09T16:54:38.207Z,24.20
2018-07-09T16:57:06.691Z,24.00
2018-07-09T16:59:35.175Z,24.00
2018-07-09T17:02:03.606Z,24.00
2018-07-09T17:04:32.036Z,23.80
2018-07-09T17:07:00.666Z,23.70
2018-07-09T17:09:29.153Z,23.60
2018-07-09T17:11:57.561Z,23.50
2018-07-09T17:14:26.062Z,23.50
2018-07-09T17:16:54.517Z,23.50
2018-07-09T17:19:23.022Z,23.40
2018-07-09T17:21:51.501Z,23.30
2018-07-09T17:24:19.962Z,23.30
2018-07-09T17:26:48.521Z,23.30
2018-07-09T17:29:16.952Z,23.30
2018-07-09T17:31:45.452Z,23.30
2018-07-09T17:34:13.910Z,23.30
2018-07-09T17:36:42.378Z,23.30
2018-07-09T17:39:10.876Z,23.40
2018-07-09T17:41:39.306Z,23.30
2018-07-09T17:44:07.844Z,23.30
2018-07-09T17:46:36.257Z,23.20
2018-07-09T17:49:04.750Z,23.20
2018-07-09T17:51:33.221Z,23.00
2018-07-09T17:54:01.691Z,22.90
2018-07-09T17:56:30.138Z,22.80
2018-07-09T17:58:58.623Z,22.80
2018-07-09T18:01:27.083Z,22.70
2018-07-09T18:03:55.540Z,22.70
2018-07-09T18:06:23.997Z,22.60
2018-07-09T18:11:20.661Z,22.40
2018-07-09T18:13:49.143Z,22.30
2018-07-09T18:16:17.589Z,22.30
2018-07-09T18:18:46.070Z,22.30
2018-07-09T18:21:14.571Z,22.20
2018-07-09T18:23:42.971Z,22.10
2018-07-09T18:26:11.409Z,22.10
2018-07-09T18:28:39.894Z,21.90
2018-07-09T18:31:08.319Z,21.90
2018-07-09T18:33:36.897Z,21.90
2018-07-09T18:36:05.643Z,21.80
2018-07-09T18:38:34.140Z,21.70
2018-07-09T18:41:02.549Z,21.60
2018-07-09T18:43:31.315Z,21.50
2018-07-09T18:48:27.949Z,21.30
2018-07-09T18:50:56.541Z,21.20
2018-07-09T18:55:53.191Z,21.00
2018-07-09T18:58:23.305Z,20.90
2018-07-09T19:00:51.811Z,20.80
2018-07-09T19:03:20.295Z,20.70
2018-07-09T19:06:16.880Z,20.60
2018-07-09T19:08:45.381Z,20.60
2018-07-09T19:11:13.895Z,20.40
2018-07-09T19:13:42.447Z,20.40
2018-07-09T19:16:10.961Z,20.30
2018-07-09T19:19:51.989Z,20.20
2018-07-09T19:22:28.269Z,20.10
2018-07-09T19:24:55.577Z,20.10
2018-07-09T19:27:22.901Z,20.10
2018-07-09T19:29:50.218Z,20.00
2018-07-09T19:32:17.578Z,19.90
2018-07-09T19:34:44.975Z,19.80
2018-07-09T19:37:12.358Z,19.80
2018-07-09T19:39:39.588Z,19.70
2018-07-09T19:42:06.917Z,19.60
2018-07-09T19:44:34.285Z,19.50
2018-07-09T19:47:01.604Z,19.50
2018-07-09T19:49:28.950Z,19.40
2018-07-09T19:51:56.270Z,19.40
2018-07-09T19:54:23.612Z,19.50
2018-07-09T19:56:50.940Z,19.50
2018-07-09T19:59:19.945Z,19.50
2018-07-09T20:01:47.344Z,19.40
2018-07-09T20:04:14.698Z,19.40
2018-07-09T20:06:42.015Z,19.30
2018-07-09T20:09:14.718Z,19.30
2018-07-09T20:11:47.400Z,19.20
2018-07-09T20:14:19.987Z,19.20
2018-07-09T20:16:52.513Z,19.10
2018-07-09T20:21:48.273Z,19.00
2018-07-09T20:24:15.597Z,18.90
2018-07-09T20:26:42.899Z,18.80
2018-07-09T20:29:10.239Z,18.70
2018-07-09T20:31:37.566Z,18.60
2018-07-09T20:34:04.917Z,18.60
2018-07-09T20:36:32.241Z,18.50
2018-07-09T20:38:59.598Z,18.50
2018-07-09T20:41:26.920Z,18.40
2018-07-09T20:43:54.264Z,18.40
2018-07-09T20:46:21.710Z,18.40
2018-07-09T20:48:49.028Z,18.30
2018-07-09T20:51:16.378Z,18.10
2018-07-09T20:53:43.787Z,18.10
2018-07-09T20:56:11.140Z,18.00
2018-07-09T20:58:38.553Z,18.00
2018-07-09T21:01:06.074Z,18.00
2018-07-09T21:03:33.377Z,18.00
2018-07-09T21:06:00.739Z,17.90
2018-07-09T21:08:28.065Z,17.90
2018-07-09T21:13:22.981Z,17.80
2018-07-09T21:15:50.429Z,17.80
2018-07-09T21:18:17.685Z,17.70
2018-07-09T21:23:12.605Z,17.60
2018-07-09T21:25:39.921Z,17.70
2018-07-09T21:28:07.265Z,17.70
2018-07-09T21:30:34.595Z,17.70
2018-07-09T21:33:01.942Z,17.70
2018-07-09T21:35:29.246Z,17.70
2018-07-09T21:37:56.728Z,17.70
2018-07-09T21:40:23.905Z,17.50
2018-07-09T21:42:51.262Z,17.50
2018-07-09T21:45:18.565Z,17.50
2018-07-09T21:47:45.909Z,17.50
2018-07-09T21:50:13.222Z,17.50
2018-07-09T21:52:40.566Z,17.50
2018-07-09T21:55:07.878Z,17.50
2018-07-09T21:57:35.207Z,17.50
2018-07-09T22:00:02.520Z,17.50
2018-07-09T22:02:29.906Z,17.40
2018-07-09T22:04:57.177Z,17.50
2018-07-09T22:07:24.535Z,17.50
2018-07-09T22:09:51.861Z,17.50
2018-07-09T22:12:19.208Z,17.40
2018-07-09T22:14:46.543Z,17.50
2018-07-09T22:17:13.898Z,17.50
2018-07-09T22:19:41.261Z,17.40
2018-07-09T22:22:08.588Z,17.30
2018-07-09T22:24:35.933Z,17.30
2018-07-09T22:29:30.850Z,17.20
2018-07-09T22:34:27.425Z,17.10
2018-07-09T22:36:55.829Z,17.00
2018-07-09T22:39:24.273Z,17.00
2018-07-09T22:41:52.698Z,17.00
2018-07-09T22:44:22.170Z,17.00
2018-07-09T22:46:50.656Z,16.90
2018-07-09T22:49:19.101Z,16.90
2018-07-09T22:54:16.255Z,16.80
2018-07-09T22:56:44.681Z,16.70
2018-07-09T22:59:13.140Z,16.70
2018-07-09T23:01:41.551Z,16.70
2018-07-09T23:04:10.031Z,16.60
2018-07-09T23:06:38.470Z,16.60
2018-07-09T23:11:29.330Z,16.60
2018-07-09T23:16:44.596Z,16.50
2018-07-09T23:19:24.980Z,16.50
2018-07-09T23:22:04.637Z,16.40
2018-07-09T23:24:31.973Z,16.40
2018-07-09T23:26:59.372Z,16.30
2018-07-09T23:29:26.677Z,16.30
2018-07-09T23:31:54.034Z,16.30
2018-07-09T23:34:21.344Z,16.30
2018-07-09T23:36:48.682Z,16.30
2018-07-09T23:39:15.985Z,16.30
2018-07-09T23:41:43.321Z,16.20
2018-07-09T23:44:10.630Z,16.20
2018-07-09T23:46:37.957Z,16.30
2018-07-09T23:49:05.269Z,16.20
2018-07-09T23:54:00.197Z,16.20
2018-07-09T23:59:42.318Z,16.20
